createdAt,value
2018-09-13T00:02:14.147Z,4.27
2018-09-13T00:07:20.241Z,3.23
2018-09-13T00:12:23.911Z,2.90
2018-09-13T00:17:27.707Z,5.77
2018-09-13T00:22:31.306Z,2.53
2018-09-13T00:27:34.938Z,4.93
2018-09-13T00:32:38.505Z,8.77
2018-09-13T00:37:42.022Z,2.60
2018-09-13T00:42:45.649Z,2.73
2018-09-13T00:47:49.207Z,5.50
2018-09-13T00:52:55.599Z,4.47
2018-09-13T00:57:59.264Z,4.03
2018-09-13T01:03:03.104Z,6.00
2018-09-13T01:08:06.775Z,5.37
2018-09-13T01:13:10.385Z,8.03
2018-09-13T01:18:14.074Z,7.77
2018-09-13T01:23:17.973Z,5.23
2018-09-13T01:28:21.552Z,8.83
2018-09-13T01:33:25.177Z,9.67
2018-09-13T01:38:28.797Z,7.90
2018-09-13T01:43:32.644Z,6.93
2018-09-13T01:48:36.787Z,11.47
2018-09-13T01:53:40.532Z,10.10
2018-09-13T01:58:44.200Z,10.60
2018-09-13T02:03:47.811Z,7.30
2018-09-13T02:08:51.434Z,8.27
2018-09-13T02:13:55.320Z,12.63
2018-09-13T02:18:58.962Z,11.27
2018-09-13T02:24:02.525Z,8.43
2018-09-13T02:29:08.770Z,8.00
2018-09-13T02:34:12.324Z,9.40
2018-09-13T02:39:16.073Z,7.70
2018-09-13T02:44:19.665Z,8.87
2018-09-13T02:49:23.354Z,8.30
2018-09-13T02:54:26.933Z,8.73
2018-09-13T02:59:30.681Z,12.23
2018-09-13T03:04:34.327Z,8.53
2018-09-13T03:09:37.921Z,9.43
2018-09-13T03:14:41.571Z,9.73
2018-09-13T03:19:45.182Z,9.97
2018-09-13T03:24:48.785Z,9.27
2018-09-13T03:29:52.461Z,11.77
2018-09-13T03:34:56.086Z,11.67
2018-09-13T03:39:59.896Z,8.63
2018-09-13T03:45:03.692Z,13.90
2018-09-13T03:50:07.761Z,10.67
2018-09-13T03:55:11.708Z,12.20
2018-09-13T04:00:21.939Z,10.73
2018-09-13T04:05:25.513Z,9.03
2018-09-13T04:10:29.152Z,10.83
2018-09-13T04:15:32.701Z,11.67
2018-09-13T04:20:36.554Z,11.47
2018-09-13T04:25:40.082Z,11.03
2018-09-13T04:30:43.682Z,15.13
2018-09-13T04:35:47.293Z,12.63
2018-09-13T04:40:50.773Z,14.10
2018-09-13T04:45:54.316Z,13.40
2018-09-13T04:50:58.047Z,13.20
2018-09-13T04:56:01.605Z,12.00
2018-09-13T05:01:05.274Z,10.90
2018-09-13T05:06:08.805Z,13.97
2018-09-13T05:11:12.640Z,13.17
2018-09-13T05:16:16.254Z,11.93
2018-09-13T05:21:19.912Z,11.47
2018-09-13T05:26:23.479Z,10.70
2018-09-13T05:31:27.040Z,12.03
2018-09-13T05:36:30.728Z,11.20
2018-09-13T05:41:34.268Z,9.70
2018-09-13T05:46:38.145Z,11.33
2018-09-13T05:51:41.625Z,9.60
2018-09-13T05:56:45.240Z,11.03
2018-09-13T06:01:48.853Z,16.30
2018-09-13T06:06:52.721Z,10.97
2018-09-13T06:11:56.296Z,17.37
2018-09-13T06:16:59.820Z,14.13
2018-09-13T06:22:03.465Z,17.87
2018-09-13T06:27:07.190Z,16.90
2018-09-13T06:32:10.754Z,19.37
2018-09-13T06:37:14.791Z,15.67
2018-09-13T06:42:18.334Z,14.57
2018-09-13T06:47:21.969Z,11.33
2018-09-13T06:52:25.521Z,13.97
2018-09-13T06:57:29.069Z,16.03
2018-09-13T07:02:33.091Z,7.43
2018-09-13T07:07:36.841Z,8.70
2018-09-13T07:12:40.448Z,7.73
2018-09-13T07:17:44.045Z,6.77
2018-09-13T07:22:47.828Z,7.70
2018-09-13T07:27:51.496Z,5.20
2018-09-13T07:32:55.473Z,6.60
2018-09-13T07:38:01.094Z,4.30
2018-09-13T07:43:04.755Z,5.47
2018-09-13T07:48:08.381Z,7.10
2018-09-13T07:53:11.949Z,5.80
2018-09-13T07:58:21.546Z,7.40
2018-09-13T08:03:28.542Z,16.27
2018-09-13T08:08:34.821Z,5.50
2018-09-13T08:13:38.522Z,8.67
2018-09-13T08:18:42.203Z,10.13
2018-09-13T08:29:03.701Z,7.80
2018-09-13T08:34:07.308Z,5.43
2018-09-13T08:39:12.298Z,6.70
2018-09-13T08:44:16.885Z,7.67
2018-09-13T08:49:20.741Z,5.60
2018-09-13T08:54:24.507Z,5.77
2018-09-13T08:59:28.786Z,5.87
2018-09-13T09:04:32.290Z,10.57
2018-09-13T09:09:35.921Z,5.93
2018-09-13T09:14:39.570Z,6.00
2018-09-13T09:19:44.792Z,7.40
2018-09-13T09:24:48.491Z,12.60
2018-09-13T09:29:56.356Z,7.87
2018-09-13T09:35:02.765Z,7.40
2018-09-13T09:40:07.074Z,9.00
2018-09-13T09:45:10.664Z,7.33
2018-09-13T09:50:14.503Z,8.00
2018-09-13T09:55:23.438Z,6.47
2018-09-13T10:00:38.109Z,5.17
2018-09-13T10:05:41.667Z,7.20
2018-09-13T10:10:45.368Z,5.57
2018-09-13T10:15:54.191Z,8.17
2018-09-13T10:21:03.574Z,7.03
2018-09-13T10:26:12.404Z,6.83
2018-09-13T10:31:21.442Z,5.10
2018-09-13T10:36:30.200Z,4.23
2018-09-13T10:41:39.548Z,6.33
2018-09-13T10:46:43.219Z,5.70
2018-09-13T10:51:52.009Z,6.07
2018-09-13T10:56:55.585Z,6.83
2018-09-13T11:01:59.239Z,5.07
2018-09-13T11:07:02.945Z,4.33
2018-09-13T11:12:07.350Z,4.53
2018-09-13T11:17:10.912Z,4.87
2018-09-13T11:22:14.669Z,6.47
2018-09-13T11:27:18.413Z,6.37
2018-09-13T11:32:22.090Z,4.53
2018-09-13T11:37:25.684Z,5.17
2018-09-13T11:42:29.315Z,6.27
2018-09-13T11:47:32.944Z,11.60
2018-09-13T11:52:36.523Z,6.57
2018-09-13T11:57:40.137Z,5.43
2018-09-13T12:02:43.866Z,10.17
2018-09-13T12:07:47.442Z,7.83
2018-09-13T12:12:51.022Z,7.73
2018-09-13T12:17:54.662Z,5.03
2018-09-13T12:22:58.181Z,8.23
2018-09-13T12:28:01.770Z,4.80
2018-09-13T12:33:05.361Z,6.33
2018-09-13T12:38:08.986Z,4.87
2018-09-13T12:43:12.736Z,5.50
2018-09-13T12:48:16.614Z,7.97
2018-09-13T12:53:20.250Z,5.33
2018-09-13T12:58:25.057Z,6.67
2018-09-13T13:03:28.627Z,5.63
2018-09-13T13:08:32.296Z,6.17
2018-09-13T13:13:35.917Z,3.80
2018-09-13T13:18:39.532Z,4.23
2018-09-13T13:23:43.191Z,5.90
2018-09-13T13:28:46.740Z,3.87
2018-09-13T13:33:50.269Z,4.00
2018-09-13T13:38:53.955Z,6.50
2018-09-13T13:43:57.675Z,4.70
2018-09-13T13:49:01.387Z,8.83
2018-09-13T13:54:05.016Z,7.90
2018-09-13T13:59:12.101Z,4.93
2018-09-13T14:04:15.709Z,4.40
2018-09-13T14:09:21.062Z,3.83
2018-09-13T14:14:24.691Z,8.57
2018-09-13T14:19:28.207Z,4.30
2018-09-13T14:24:31.793Z,6.23
2018-09-13T14:29:35.425Z,5.50
2018-09-13T14:34:39.016Z,5.17
2018-09-13T14:39:42.629Z,4.63
2018-09-13T14:44:46.320Z,5.00
2018-09-13T14:49:49.907Z,5.57
2018-09-13T14:54:53.479Z,4.90
2018-09-13T14:59:57.094Z,5.60
2018-09-13T15:05:00.739Z,5.63
2018-09-13T15:10:04.364Z,5.53
2018-09-13T15:15:07.969Z,6.40
2018-09-13T15:20:11.812Z,5.70
2018-09-13T15:25:15.435Z,5.67
2018-09-13T15:30:29.216Z,4.27
2018-09-13T15:35:32.822Z,6.70
2018-09-13T15:40:36.476Z,7.10
2018-09-13T15:45:40.098Z,6.77
2018-09-13T15:50:43.743Z,4.10
2018-09-13T15:55:47.505Z,5.77
2018-09-13T16:00:51.110Z,4.30
2018-09-13T16:11:32.646Z,5.30
2018-09-13T16:16:36.537Z,4.00
2018-09-13T16:21:40.050Z,6.47
2018-09-13T16:26:49.802Z,3.90
2018-09-13T16:31:53.374Z,4.23
2018-09-13T16:37:05.308Z,4.80
2018-09-13T16:42:14.974Z,3.73
2018-09-13T16:47:30.942Z,4.60
2018-09-13T16:52:34.590Z,5.17
2018-09-13T16:57:38.495Z,6.53
2018-09-13T17:02:42.068Z,6.50
2018-09-13T17:07:46.579Z,5.60
2018-09-13T17:12:50.178Z,4.57
2018-09-13T17:17:53.726Z,5.07
2018-09-13T17:22:57.279Z,3.93
2018-09-13T17:28:01.019Z,5.10
2018-09-13T17:33:04.719Z,3.73
2018-09-13T17:38:08.381Z,3.30
2018-09-13T17:43:12.040Z,4.17
2018-09-13T17:48:15.769Z,4.73
2018-09-13T17:53:19.393Z,3.25
2018-09-13T17:58:22.966Z,3.93
2018-09-13T18:03:26.561Z,5.90
2018-09-13T18:08:30.279Z,4.63
2018-09-13T18:13:34.255Z,4.67
2018-09-13T18:18:37.818Z,4.17
2018-09-13T18:23:41.570Z,3.30
2018-09-13T18:28:45.164Z,4.87
2018-09-13T18:33:48.763Z,3.57
2018-09-13T18:38:52.783Z,6.77
2018-09-13T18:43:56.607Z,4.73
2018-09-13T18:49:00.230Z,3.83
2018-09-13T18:54:04.831Z,5.33
2018-09-13T18:59:08.491Z,6.17
2018-09-13T19:04:12.292Z,5.87
2018-09-13T19:09:15.846Z,6.57
2018-09-13T19:14:20.534Z,5.60
2018-09-13T19:19:24.379Z,7.20
2018-09-13T19:24:28.091Z,6.17
2018-09-13T19:29:33.017Z,8.20
2018-09-13T19:34:36.630Z,7.67
2018-09-13T19:39:40.319Z,6.57
2018-09-13T19:44:43.857Z,7.40
2018-09-13T19:49:47.448Z,6.53
2018-09-13T19:54:50.976Z,6.53
2018-09-13T19:59:54.494Z,6.93
2018-09-13T20:04:58.165Z,5.97
2018-09-13T20:10:02.062Z,6.63
2018-09-13T20:15:06.388Z,9.27
2018-09-13T20:20:28.736Z,8.67
2018-09-13T20:25:32.346Z,7.73
2018-09-13T20:30:36.553Z,8.97
2018-09-13T20:35:40.147Z,14.03
2018-09-13T20:40:44.211Z,12.83
2018-09-13T20:45:47.883Z,12.27
2018-09-13T20:50:51.465Z,12.73
2018-09-13T20:55:55.254Z,12.90
2018-09-13T21:00:58.866Z,11.90
2018-09-13T21:06:02.452Z,14.33
2018-09-13T21:11:06.071Z,10.83
2018-09-13T21:16:09.693Z,12.17
2018-09-13T21:21:13.298Z,11.37
2018-09-13T21:26:16.915Z,11.23
2018-09-13T21:31:20.510Z,12.87
2018-09-13T21:36:24.142Z,11.53
2018-09-13T21:41:28.190Z,13.87
2018-09-13T21:46:31.753Z,12.57
2018-09-13T21:51:36.160Z,12.80
2018-09-13T21:56:42.292Z,15.50
2018-09-13T22:01:46.001Z,30.77
2018-09-13T22:06:49.612Z,15.20
2018-09-13T22:11:53.154Z,12.27
2018-09-13T22:16:57.006Z,14.60
2018-09-13T22:22:00.529Z,11.83
2018-09-13T22:27:04.102Z,12.17
2018-09-13T22:32:07.925Z,12.23
2018-09-13T22:37:11.469Z,13.53
2018-09-13T22:42:15.123Z,9.33
2018-09-13T22:47:18.670Z,12.60
2018-09-13T22:52:22.209Z,14.53
2018-09-13T22:57:25.832Z,11.90
2018-09-13T23:02:29.487Z,13.17
2018-09-13T23:07:32.997Z,11.17
2018-09-13T23:12:36.607Z,13.00
2018-09-13T23:17:40.246Z,11.03
2018-09-13T23:22:43.782Z,12.63
2018-09-13T23:27:47.382Z,12.87
2018-09-13T23:32:50.955Z,11.17
2018-09-13T23:37:54.507Z,12.80
2018-09-13T23:42:58.098Z,15.00
2018-09-13T23:48:01.743Z,10.40
2018-09-13T23:53:05.377Z,12.60
2018-09-13T23:58:09.082Z,13.33
